createdAt,value
2023-02-11T00:00:22.323Z,83.17
2023-02-11T00:02:28.452Z,83.26
2023-02-11T00:04:32.398Z,83.20
2023-02-11T00:06:38.113Z,83.21
2023-02-11T00:08:41.752Z,83.18
2023-02-11T00:10:46.358Z,82.75
2023-02-11T00:12:49.551Z,83.20
2023-02-11T00:14:52.766Z,83.90
2023-02-11T00:16:55.816Z,84.07
2023-02-11T00:19:03.005Z,84.42
2023-02-11T00:21:10.423Z,83.78
2023-02-11T00:23:13.597Z,84.29
2023-02-11T00:25:15.836Z,84.11
2023-02-11T00:27:18.701Z,84.01
2023-02-11T00:29:21.664Z,84.20
2023-02-11T00:31:24.414Z,85.68
2023-02-11T00:33:26.347Z,85.29
2023-02-11T00:35:28.562Z,85.39
2023-02-11T00:37:30.099Z,85.59
2023-02-11T00:39:31.685Z,85.61
2023-02-11T00:41:34.985Z,84.99
2023-02-11T00:43:38.667Z,84.36
2023-02-11T00:45:40.955Z,84.55
2023-02-11T00:47:42.933Z,83.96
2023-02-11T00:49:44.715Z,84.16
2023-02-11T00:51:46.668Z,84.49
2023-02-11T00:53:48.492Z,85.40
2023-02-11T00:55:50.408Z,85.29
2023-02-11T00:57:52.121Z,84.97
2023-02-11T00:59:53.642Z,85.12
2023-02-11T01:01:55.585Z,84.74
2023-02-11T01:03:57.140Z,84.50
2023-02-11T01:05:58.681Z,84.59
2023-02-11T01:08:00.344Z,84.75
2023-02-11T01:10:02.191Z,84.61
2023-02-11T01:12:04.935Z,85.05
2023-02-11T01:14:07.405Z,85.84
2023-02-11T01:16:10.618Z,86.30
2023-02-11T01:18:12.159Z,85.77
2023-02-11T01:20:17.144Z,85.17
2023-02-11T01:22:18.734Z,85.40
2023-02-11T01:24:22.050Z,85.42
2023-02-11T01:26:23.547Z,85.23
2023-02-11T01:28:28.063Z,84.77
2023-02-11T01:30:29.771Z,85.83
2023-02-11T01:32:31.340Z,85.79
2023-02-11T01:34:32.862Z,85.93
2023-02-11T01:36:34.478Z,85.90
2023-02-11T01:38:36.521Z,86.10
2023-02-11T01:40:38.471Z,85.64
2023-02-11T01:42:41.118Z,85.66
2023-02-11T01:44:42.887Z,86.14
2023-02-11T01:46:45.391Z,85.92
2023-02-11T01:49:09.551Z,85.82
2023-02-11T01:51:17.006Z,86.58
2023-02-11T01:53:37.971Z,86.25
2023-02-11T01:55:58.038Z,86.26
2023-02-11T01:58:04.896Z,85.92
2023-02-11T02:00:21.506Z,86.62
2023-02-11T02:02:29.699Z,86.57
2023-02-11T02:04:35.331Z,86.55
2023-02-11T02:06:59.720Z,86.53
2023-02-11T02:09:08.670Z,85.90
2023-02-11T02:11:10.636Z,86.11
2023-02-11T02:13:13.377Z,85.74
2023-02-11T02:15:20.422Z,85.75
2023-02-11T02:17:37.795Z,85.34
2023-02-11T02:20:11.014Z,85.18
2023-02-11T02:22:27.629Z,85.88
2023-02-11T02:25:00.743Z,85.89
2023-02-11T02:27:32.245Z,85.94
2023-02-11T02:30:17.099Z,86.28
2023-02-11T02:32:37.781Z,86.59
2023-02-11T02:34:48.395Z,86.65
2023-02-11T02:37:10.665Z,86.65
2023-02-11T02:39:20.568Z,86.85
2023-02-11T02:41:32.308Z,86.85
2023-02-11T02:43:36.817Z,86.41
2023-02-11T02:45:38.587Z,87.07
2023-02-11T02:47:40.426Z,87.20
2023-02-11T02:49:41.919Z,87.71
2023-02-11T02:52:02.426Z,87.21
2023-02-11T02:54:23.829Z,86.55
2023-02-11T02:57:04.027Z,85.60
2023-02-11T02:59:19.888Z,85.99
2023-02-11T03:01:39.832Z,86.29
2023-02-11T03:03:56.344Z,86.04
2023-02-11T03:06:13.153Z,85.89
2023-02-11T03:08:27.750Z,85.87
2023-02-11T03:10:32.844Z,85.74
2023-02-11T03:12:36.249Z,85.93
2023-02-11T03:14:38.941Z,85.86
2023-02-11T03:16:43.291Z,85.87
2023-02-11T03:18:51.126Z,85.60
2023-02-11T03:20:54.361Z,85.54
2023-02-11T03:23:00.869Z,85.71
2023-02-11T03:25:03.371Z,85.71
2023-02-11T03:27:24.448Z,85.62
2023-02-11T03:29:54.568Z,86.08
2023-02-11T03:32:05.116Z,85.88
2023-02-11T03:34:14.466Z,85.72
2023-02-11T03:36:32.754Z,85.67
2023-02-11T03:38:39.748Z,85.12
2023-02-11T03:40:45.400Z,85.88
2023-02-11T03:42:56.798Z,85.80
2023-02-11T03:45:05.428Z,86.29
2023-02-11T03:47:10.548Z,86.46
2023-02-11T03:49:16.216Z,86.18
2023-02-11T03:51:20.516Z,85.85
2023-02-11T03:53:23.734Z,87.00
2023-02-11T03:55:26.197Z,86.83
2023-02-11T03:57:27.724Z,86.34
2023-02-11T03:59:29.770Z,86.52
2023-02-11T04:01:31.556Z,86.81
2023-02-11T04:03:33.381Z,87.73
2023-02-11T04:05:36.217Z,87.58
2023-02-11T04:07:37.755Z,87.69
2023-02-11T04:09:39.243Z,87.42
2023-02-11T04:11:40.801Z,87.80
2023-02-11T04:13:42.325Z,88.08
2023-02-11T04:15:43.961Z,88.03
2023-02-11T04:17:45.625Z,87.57
2023-02-11T04:19:47.107Z,87.86
2023-02-11T04:21:48.613Z,87.65
2023-02-11T04:23:50.261Z,87.46
2023-02-11T04:25:52.178Z,87.32
2023-02-11T04:27:54.161Z,87.18
2023-02-11T04:29:55.640Z,87.10
2023-02-11T04:31:57.278Z,87.31
2023-02-11T04:33:58.854Z,86.85
2023-02-11T04:36:00.330Z,87.21
2023-02-11T04:38:01.893Z,87.28
2023-02-11T04:40:04.098Z,87.58
2023-02-11T04:42:05.957Z,87.42
2023-02-11T04:44:07.775Z,88.01
2023-02-11T04:46:09.401Z,87.87
2023-02-11T04:48:10.960Z,87.42
2023-02-11T04:50:12.475Z,87.77
2023-02-11T04:52:14.840Z,87.20
2023-02-11T04:54:17.386Z,87.45
2023-02-11T04:56:19.579Z,87.38
2023-02-11T04:58:21.201Z,87.06
2023-02-11T05:00:22.763Z,87.28
2023-02-11T05:02:24.328Z,86.90
2023-02-11T05:04:26.210Z,87.00
2023-02-11T05:06:27.834Z,86.96
2023-02-11T05:08:29.875Z,87.30
2023-02-11T05:10:31.420Z,86.40
2023-02-11T05:12:33.042Z,86.80
2023-02-11T05:14:34.660Z,86.95
2023-02-11T05:16:36.574Z,87.41
2023-02-11T05:18:39.639Z,88.22
2023-02-11T05:20:42.064Z,88.11
2023-02-11T05:22:43.660Z,87.47
2023-02-11T05:24:45.177Z,87.08
2023-02-11T05:26:46.867Z,87.54
2023-02-11T05:28:48.439Z,87.51
2023-02-11T05:30:49.979Z,87.77
2023-02-11T05:32:51.580Z,87.88
2023-02-11T05:34:53.155Z,87.88
2023-02-11T05:36:55.121Z,87.74
2023-02-11T05:38:56.799Z,87.83
2023-02-11T05:40:58.436Z,87.68
2023-02-11T05:43:00.117Z,87.59
2023-02-11T05:45:01.985Z,86.74
2023-02-11T05:47:03.526Z,86.32
2023-02-11T05:49:05.341Z,87.05
2023-02-11T05:51:06.868Z,87.42
2023-02-11T05:53:09.205Z,88.45
2023-02-11T05:55:11.283Z,88.15
2023-02-11T05:57:13.280Z,87.96
2023-02-11T05:59:15.022Z,87.83
2023-02-11T06:01:16.630Z,87.41
2023-02-11T06:03:18.241Z,87.66
2023-02-11T06:05:20.032Z,87.74
2023-02-11T06:07:21.610Z,87.97
2023-02-11T06:09:23.285Z,87.31
2023-02-11T06:11:25.377Z,87.78
2023-02-11T06:13:26.902Z,87.93
2023-02-11T06:15:28.691Z,88.18
2023-02-11T06:17:33.668Z,87.69
2023-02-11T06:19:35.397Z,87.51
2023-02-11T06:21:43.983Z,87.61
2023-02-11T06:23:45.977Z,87.69
2023-02-11T06:25:47.847Z,88.39
2023-02-11T06:27:49.688Z,88.14
2023-02-11T06:29:52.718Z,87.83
2023-02-11T06:31:54.471Z,87.32
2023-02-11T06:33:56.238Z,87.96
2023-02-11T06:35:58.223Z,88.17
2023-02-11T06:38:00.409Z,87.90
2023-02-11T06:40:02.054Z,87.98
2023-02-11T06:42:05.390Z,88.09
2023-02-11T06:44:08.557Z,87.81
2023-02-11T06:46:10.816Z,87.95
2023-02-11T06:48:12.460Z,88.24
2023-02-11T06:50:14.816Z,88.08
2023-02-11T06:52:16.510Z,88.42
2023-02-11T06:54:18.090Z,88.17
2023-02-11T06:56:22.136Z,88.40
2023-02-11T06:58:23.670Z,88.34
2023-02-11T07:00:26.593Z,89.30
2023-02-11T07:02:28.526Z,89.62
2023-02-11T07:04:31.118Z,89.10
2023-02-11T07:06:32.740Z,88.92
2023-02-11T07:08:36.764Z,91.33
2023-02-11T07:10:38.365Z,88.69
2023-02-11T07:12:40.014Z,88.07
2023-02-11T07:14:41.964Z,87.74
2023-02-11T07:16:43.613Z,87.87
2023-02-11T07:18:47.439Z,87.83
2023-02-11T07:20:49.104Z,88.13
2023-02-11T07:22:50.620Z,87.26
2023-02-11T07:24:52.226Z,87.17
2023-02-11T07:26:54.042Z,87.39
2023-02-11T07:28:55.624Z,87.95
2023-02-11T07:30:57.406Z,87.95
2023-02-11T07:32:58.953Z,87.88
2023-02-11T07:35:00.571Z,87.78
2023-02-11T07:37:03.042Z,87.73
2023-02-11T07:39:05.018Z,87.36
2023-02-11T07:41:09.667Z,87.50
2023-02-11T07:43:11.147Z,86.88
2023-02-11T07:45:13.984Z,86.98
2023-02-11T07:47:15.846Z,87.04
2023-02-11T07:49:17.565Z,87.16
2023-02-11T07:51:24.401Z,86.95
2023-02-11T07:53:25.956Z,86.30
2023-02-11T07:55:27.514Z,86.33
2023-02-11T07:57:29.384Z,86.02
2023-02-11T07:59:30.978Z,85.96
2023-02-11T08:01:33.220Z,85.63
2023-02-11T08:03:35.847Z,86.41
2023-02-11T08:05:38.862Z,85.24
2023-02-11T08:07:40.460Z,85.62
2023-02-11T08:09:42.122Z,85.62
2023-02-11T08:11:43.901Z,85.36
2023-02-11T08:13:45.912Z,85.19
2023-02-11T08:15:47.505Z,84.49
2023-02-11T08:17:49.030Z,85.32
2023-02-11T08:19:50.592Z,85.42
2023-02-11T08:21:55.652Z,85.50
2023-02-11T08:23:58.277Z,84.94
2023-02-11T08:26:05.141Z,84.52
2023-02-11T08:28:06.829Z,84.71
2023-02-11T08:30:09.446Z,84.48
2023-02-11T08:32:11.383Z,84.19
2023-02-11T08:34:14.739Z,84.91
2023-02-11T08:36:20.373Z,84.78
2023-02-11T08:38:21.931Z,85.08
2023-02-11T08:40:25.181Z,84.96
2023-02-11T08:42:26.663Z,84.71
2023-02-11T08:44:29.477Z,85.28
2023-02-11T08:46:31.036Z,84.35
2023-02-11T08:48:33.056Z,82.92
2023-02-11T08:50:38.588Z,83.39
2023-02-11T08:52:40.360Z,84.21
2023-02-11T08:54:42.477Z,83.25
2023-02-11T08:56:44.915Z,83.37
2023-02-11T08:58:47.930Z,82.79
2023-02-11T09:00:50.249Z,81.42
2023-02-11T09:02:52.213Z,79.47
2023-02-11T09:04:53.769Z,79.36
2023-02-11T09:06:55.351Z,79.64
2023-02-11T09:08:58.707Z,79.60
2023-02-11T09:11:00.197Z,80.17
2023-02-11T09:13:01.962Z,80.31
2023-02-11T09:15:03.701Z,79.06
2023-02-11T09:17:05.538Z,79.47
2023-02-11T09:19:07.046Z,79.39
2023-02-11T09:21:09.780Z,79.22
2023-02-11T09:23:12.281Z,79.78
2023-02-11T09:25:13.876Z,78.36
2023-02-11T09:27:15.706Z,77.91
2023-02-11T09:29:17.342Z,77.21
2023-02-11T09:31:22.389Z,75.81
2023-02-11T09:33:24.111Z,75.61
2023-02-11T09:35:25.644Z,75.07
2023-02-11T09:37:27.352Z,74.21
2023-02-11T09:39:29.248Z,73.14
2023-02-11T09:41:39.287Z,73.80
2023-02-11T09:43:48.186Z,74.89
2023-02-11T09:45:50.445Z,76.06
2023-02-11T09:48:05.124Z,75.62
2023-02-11T09:50:14.663Z,76.14
2023-02-11T09:52:46.910Z,76.70
2023-02-11T09:54:56.388Z,75.97
2023-02-11T09:56:58.105Z,77.03
2023-02-11T09:59:00.218Z,75.93
2023-02-11T10:01:08.912Z,75.56
2023-02-11T10:03:32.178Z,76.59
2023-02-11T10:05:43.057Z,76.25
2023-02-11T10:07:49.795Z,77.23
2023-02-11T10:10:12.937Z,75.92
2023-02-11T10:12:52.750Z,76.30
2023-02-11T10:14:57.020Z,77.01
2023-02-11T10:17:25.861Z,77.15
2023-02-11T10:19:33.087Z,77.82
2023-02-11T10:21:54.168Z,77.33
2023-02-11T10:23:59.878Z,78.82
2023-02-11T10:26:02.961Z,79.16
2023-02-11T10:28:20.184Z,79.44
2023-02-11T10:30:40.696Z,80.25
2023-02-11T10:32:49.173Z,81.06
2023-02-11T10:34:52.944Z,81.21
2023-02-11T10:36:54.501Z,81.17
2023-02-11T10:38:57.450Z,81.97
2023-02-11T10:41:00.012Z,82.47
2023-02-11T10:43:06.236Z,80.80
2023-02-11T10:45:17.716Z,81.26
2023-02-11T10:47:23.817Z,81.25
2023-02-11T10:49:36.284Z,80.77
2023-02-11T10:51:37.800Z,80.98
2023-02-11T10:53:39.697Z,79.15
2023-02-11T10:55:50.988Z,79.09
2023-02-11T10:57:57.875Z,78.54
2023-02-11T11:00:07.883Z,79.14
2023-02-11T11:02:24.704Z,79.46
2023-02-11T11:04:43.892Z,78.95
2023-02-11T11:06:45.912Z,79.28
2023-02-11T11:08:50.742Z,79.86
2023-02-11T11:11:05.265Z,79.79
2023-02-11T11:13:24.448Z,80.84
2023-02-11T11:15:31.296Z,81.12
2023-02-11T11:17:33.173Z,81.46
2023-02-11T11:19:39.105Z,82.00
2023-02-11T11:21:44.322Z,80.60
2023-02-11T11:24:03.753Z,81.43
2023-02-11T11:26:14.861Z,81.19
2023-02-11T11:28:22.662Z,82.34
2023-02-11T11:30:31.668Z,82.03
2023-02-11T11:32:34.166Z,79.82
2023-02-11T11:34:42.515Z,79.88
2023-02-11T11:36:44.736Z,81.74
2023-02-11T11:38:54.930Z,81.50
2023-02-11T11:41:16.775Z,81.81
2023-02-11T11:43:23.141Z,81.33
2023-02-11T11:45:26.518Z,81.16
2023-02-11T11:47:51.144Z,79.66
2023-02-11T11:50:03.596Z,76.90
2023-02-11T11:52:34.434Z,77.60
2023-02-11T11:54:37.294Z,77.20
2023-02-11T11:57:00.957Z,77.04
2023-02-11T11:59:11.117Z,77.14
2023-02-11T12:01:27.639Z,77.36
2023-02-11T12:03:56.871Z,78.11
2023-02-11T12:06:15.908Z,77.03
2023-02-11T12:08:30.697Z,77.64
2023-02-11T12:10:52.130Z,77.82
2023-02-11T12:13:20.429Z,77.21
2023-02-11T12:15:46.545Z,77.71
2023-02-11T12:18:16.076Z,77.61
2023-02-11T12:20:48.238Z,77.03
2023-02-11T12:23:19.685Z,77.56
2023-02-11T12:25:29.708Z,76.35
2023-02-11T12:27:44.154Z,75.97
2023-02-11T12:30:03.324Z,77.54
2023-02-11T12:32:21.810Z,77.81
2023-02-11T12:34:53.379Z,77.82
2023-02-11T12:37:06.206Z,78.30
2023-02-11T12:39:32.823Z,78.18
2023-02-11T12:42:01.629Z,78.62
2023-02-11T12:44:03.491Z,78.99
2023-02-11T12:46:11.742Z,79.21
2023-02-11T12:48:28.453Z,79.93
2023-02-11T12:50:50.576Z,78.87
2023-02-11T12:53:02.158Z,79.14
2023-02-11T12:55:32.264Z,79.16
2023-02-11T12:57:37.116Z,79.22
2023-02-11T12:59:58.645Z,79.43
2023-02-11T13:02:04.093Z,78.88
2023-02-11T13:04:21.634Z,80.49
2023-02-11T13:06:32.942Z,80.84
2023-02-11T13:08:41.775Z,79.92
2023-02-11T13:10:47.156Z,80.37
2023-02-11T13:13:10.280Z,79.81
2023-02-11T13:15:15.605Z,81.33
2023-02-11T13:17:25.466Z,80.89
2023-02-11T13:19:48.132Z,80.00
2023-02-11T13:22:00.288Z,80.76
2023-02-11T13:24:13.113Z,80.45
2023-02-11T13:26:32.840Z,81.04
2023-02-11T13:28:41.199Z,81.38
2023-02-11T13:30:47.956Z,82.49
2023-02-11T13:33:16.078Z,82.49
2023-02-11T13:35:45.881Z,83.11
2023-02-11T13:37:47.888Z,82.83
2023-02-11T13:40:02.425Z,84.14
2023-02-11T13:42:04.584Z,84.16
2023-02-11T13:44:08.962Z,83.75
2023-02-11T13:46:15.505Z,83.86
2023-02-11T13:48:24.748Z,83.66
2023-02-11T13:50:27.852Z,83.19
2023-02-11T13:52:33.067Z,83.57
2023-02-11T13:54:38.878Z,83.95
2023-02-11T13:56:46.275Z,83.72
2023-02-11T13:58:50.871Z,84.20
2023-02-11T14:00:52.817Z,84.30
2023-02-11T14:03:42.145Z,84.51
2023-02-11T14:06:28.409Z,84.10
2023-02-11T14:08:48.874Z,84.16
2023-02-11T14:10:53.372Z,84.43
2023-02-11T14:13:26.433Z,84.38
2023-02-11T14:15:39.060Z,84.92
2023-02-11T14:17:40.842Z,84.33
2023-02-11T14:19:45.458Z,84.94
2023-02-11T14:21:47.324Z,85.38
2023-02-11T14:23:52.529Z,84.83
2023-02-11T14:26:04.646Z,85.18
2023-02-11T14:28:18.796Z,85.37
2023-02-11T14:30:44.265Z,86.13
2023-02-11T14:33:00.807Z,85.20
2023-02-11T14:35:15.645Z,85.46
2023-02-11T14:37:32.102Z,85.48
2023-02-11T14:40:17.738Z,85.62
2023-02-11T14:42:22.795Z,85.33
2023-02-11T14:44:28.103Z,85.34
2023-02-11T14:46:30.791Z,85.47
2023-02-11T14:48:36.076Z,84.93
2023-02-11T14:50:48.607Z,84.49
2023-02-11T14:52:51.293Z,84.84
2023-02-11T14:55:05.027Z,85.12
2023-02-11T14:57:14.399Z,85.66
2023-02-11T14:59:22.255Z,85.70
2023-02-11T15:01:31.442Z,85.70
2023-02-11T15:03:39.067Z,85.24
2023-02-11T15:05:40.724Z,84.68
2023-02-11T15:07:45.057Z,84.85
2023-02-11T15:09:51.092Z,85.34
2023-02-11T15:11:53.547Z,85.44
2023-02-11T15:13:58.973Z,85.33
2023-02-11T15:16:06.519Z,85.01
2023-02-11T15:18:09.571Z,85.31
2023-02-11T15:20:21.011Z,85.08
2023-02-11T15:22:26.948Z,84.83
2023-02-11T15:24:35.214Z,84.90
2023-02-11T15:26:36.780Z,84.97
2023-02-11T15:28:38.376Z,85.29
2023-02-11T15:30:39.958Z,86.07
2023-02-11T15:32:44.865Z,85.33
2023-02-11T15:34:48.225Z,84.74
2023-02-11T15:36:50.130Z,84.87
2023-02-11T15:39:17.251Z,84.56
2023-02-11T15:41:35.561Z,84.76
2023-02-11T15:43:45.586Z,85.01
2023-02-11T15:45:53.011Z,85.27
2023-02-11T15:48:06.180Z,85.63
2023-02-11T15:50:19.204Z,85.70
2023-02-11T15:52:27.066Z,87.84
2023-02-11T15:54:32.045Z,84.89
2023-02-11T15:56:44.077Z,85.38
2023-02-11T15:58:49.132Z,86.31
2023-02-11T16:00:59.547Z,87.85
2023-02-11T16:03:01.297Z,86.71
2023-02-11T16:05:08.858Z,86.80
2023-02-11T16:07:56.906Z,86.39
2023-02-11T16:09:58.663Z,86.47
2023-02-11T16:12:22.410Z,86.29
2023-02-11T16:14:32.385Z,86.30
2023-02-11T16:16:35.359Z,87.90
2023-02-11T16:19:02.129Z,86.06
2023-02-11T16:21:15.681Z,85.67
2023-02-11T16:23:48.743Z,85.90
2023-02-11T16:25:54.856Z,86.28
2023-02-11T16:27:56.491Z,85.69
2023-02-11T16:29:58.672Z,86.63
2023-02-11T16:32:23.209Z,86.37
2023-02-11T16:34:25.713Z,87.20
2023-02-11T16:36:27.389Z,87.81
2023-02-11T16:38:30.322Z,88.08
2023-02-11T16:40:32.298Z,88.22
2023-02-11T16:42:34.639Z,87.69
2023-02-11T16:44:36.284Z,87.10
2023-02-11T16:46:38.174Z,87.65
2023-02-11T16:48:39.817Z,87.40
2023-02-11T16:50:46.292Z,87.80
2023-02-11T16:52:48.445Z,87.42
2023-02-11T16:54:50.034Z,87.58
2023-02-11T16:56:51.844Z,87.48
2023-02-11T16:58:53.386Z,87.17
2023-02-11T17:00:57.061Z,87.76
2023-02-11T17:02:58.926Z,87.70
2023-02-11T17:05:02.890Z,86.88
2023-02-11T17:07:04.699Z,87.71
2023-02-11T17:09:07.761Z,87.46
2023-02-11T17:11:09.412Z,87.58
2023-02-11T17:13:11.133Z,87.50
2023-02-11T17:15:12.659Z,87.08
2023-02-11T17:17:14.190Z,87.54
2023-02-11T17:19:20.334Z,88.64
2023-02-11T17:21:22.772Z,88.48
2023-02-11T17:23:24.435Z,87.62
2023-02-11T17:25:25.980Z,87.56
2023-02-11T17:27:27.814Z,87.44
2023-02-11T17:29:29.502Z,87.36
2023-02-11T17:31:31.149Z,87.65
2023-02-11T17:33:35.826Z,87.61
2023-02-11T17:35:39.819Z,87.33
2023-02-11T17:37:41.859Z,87.83
2023-02-11T17:39:44.566Z,87.72
2023-02-11T17:41:46.122Z,88.06
2023-02-11T17:43:47.753Z,87.94
2023-02-11T17:45:49.587Z,88.01
2023-02-11T17:47:52.271Z,88.13
2023-02-11T17:49:54.001Z,88.58
2023-02-11T17:51:56.058Z,87.51
2023-02-11T17:54:01.607Z,88.47
2023-02-11T17:56:06.291Z,88.11
2023-02-11T17:58:07.971Z,87.52
2023-02-11T18:00:10.536Z,87.89
2023-02-11T18:02:15.471Z,87.60
2023-02-11T18:04:18.995Z,87.84
2023-02-11T18:06:21.499Z,87.73
2023-02-11T18:08:23.332Z,88.23
2023-02-11T18:10:25.094Z,89.25
2023-02-11T18:12:26.614Z,89.45
2023-02-11T18:14:28.256Z,89.25
2023-02-11T18:16:30.360Z,89.53
2023-02-11T18:18:32.120Z,89.47
2023-02-11T18:20:33.608Z,89.34
2023-02-11T18:22:39.172Z,89.60
2023-02-11T18:24:41.662Z,89.11
2023-02-11T18:26:44.126Z,89.42
2023-02-11T18:28:46.347Z,89.57
2023-02-11T18:30:48.122Z,90.17
2023-02-11T18:32:56.209Z,90.38
2023-02-11T18:34:57.750Z,90.51
2023-02-11T18:36:59.442Z,90.08
2023-02-11T18:39:01.298Z,89.57
2023-02-11T18:41:03.663Z,90.32
2023-02-11T18:43:05.238Z,89.71
2023-02-11T18:45:11.371Z,89.20
2023-02-11T18:47:16.024Z,91.30
2023-02-11T18:49:18.650Z,89.81
2023-02-11T18:51:20.643Z,89.16
2023-02-11T18:53:24.491Z,89.86
2023-02-11T18:55:26.479Z,89.77
2023-02-11T18:57:28.261Z,90.18
2023-02-11T18:59:29.880Z,90.08
2023-02-11T19:01:34.201Z,90.10
2023-02-11T19:03:35.884Z,89.89
2023-02-11T19:05:45.638Z,89.81
2023-02-11T19:07:47.269Z,89.58
2023-02-11T19:09:48.908Z,89.75
2023-02-11T19:11:50.557Z,89.90
2023-02-11T19:13:52.929Z,89.74
2023-02-11T19:15:54.647Z,89.74
2023-02-11T19:17:56.936Z,90.81
2023-02-11T19:19:58.519Z,91.05
2023-02-11T19:22:01.763Z,90.89
2023-02-11T19:24:07.732Z,90.18
2023-02-11T19:26:09.368Z,90.47
2023-02-11T19:28:10.968Z,90.70
2023-02-11T19:30:13.066Z,90.81
2023-02-11T19:32:15.765Z,90.96
2023-02-11T19:34:20.023Z,91.16
2023-02-11T19:36:21.553Z,91.36
2023-02-11T19:38:23.108Z,91.33
2023-02-11T19:40:24.679Z,91.11
2023-02-11T19:42:27.704Z,91.04
2023-02-11T19:44:29.371Z,91.13
2023-02-11T19:46:34.214Z,90.26
2023-02-11T19:48:35.853Z,90.35
2023-02-11T19:50:37.444Z,90.91
2023-02-11T19:52:40.595Z,90.67
2023-02-11T19:54:42.602Z,90.67
2023-02-11T19:56:44.862Z,90.15
2023-02-11T19:58:46.473Z,90.17
2023-02-11T20:00:48.381Z,90.79
2023-02-11T20:02:50.462Z,91.91
2023-02-11T20:04:52.118Z,91.62
2023-02-11T20:06:53.703Z,91.04
2023-02-11T20:09:00.371Z,91.15
2023-02-11T20:11:10.553Z,91.64
2023-02-11T20:13:12.154Z,91.93
2023-02-11T20:15:14.359Z,91.48
2023-02-11T20:17:16.091Z,91.15
2023-02-11T20:19:21.282Z,91.28
2023-02-11T20:21:26.569Z,91.99
2023-02-11T20:23:29.888Z,92.71
2023-02-11T20:25:31.695Z,92.61
2023-02-11T20:27:33.340Z,91.60
2023-02-11T20:29:35.128Z,91.16
2023-02-11T20:31:36.870Z,91.68
2023-02-11T20:33:39.772Z,91.50
2023-02-11T20:35:41.328Z,91.15
2023-02-11T20:37:44.192Z,91.47
2023-02-11T20:39:45.851Z,92.45
2023-02-11T20:41:48.107Z,92.65
2023-02-11T20:43:53.251Z,93.19
2023-02-11T20:45:54.859Z,93.43
2023-02-11T20:47:56.534Z,92.87
2023-02-11T20:49:58.396Z,93.13
2023-02-11T20:51:59.934Z,92.88
2023-02-11T20:54:01.534Z,92.67
2023-02-11T20:56:06.452Z,91.85
2023-02-11T20:58:07.943Z,91.51
2023-02-11T21:00:13.014Z,91.36
2023-02-11T21:02:15.285Z,92.16
2023-02-11T21:04:20.715Z,93.27
2023-02-11T21:06:24.599Z,92.71
2023-02-11T21:08:27.194Z,91.97
2023-02-11T21:10:28.834Z,90.84
2023-02-11T21:12:30.868Z,91.14
2023-02-11T21:14:33.920Z,92.73
2023-02-11T21:16:35.855Z,92.79
2023-02-11T21:18:37.668Z,93.30
2023-02-11T21:20:42.935Z,93.27
2023-02-11T21:22:46.108Z,94.41
2023-02-11T21:24:48.128Z,95.36
2023-02-11T21:26:50.205Z,95.37
2023-02-11T21:28:52.497Z,95.47
2023-02-11T21:30:56.088Z,95.39
2023-02-11T21:32:58.970Z,93.78
2023-02-11T21:35:02.308Z,93.69
2023-02-11T21:37:04.324Z,93.02
2023-02-11T21:39:06.326Z,93.05
2023-02-11T21:41:08.294Z,92.77
2023-02-11T21:43:10.442Z,92.54
2023-02-11T21:45:12.113Z,91.98
2023-02-11T21:47:13.784Z,92.77
2023-02-11T21:49:15.505Z,92.62
2023-02-11T21:51:20.181Z,92.37
2023-02-11T21:53:21.839Z,92.46
2023-02-11T21:55:23.396Z,92.54
2023-02-11T21:57:25.441Z,92.27
2023-02-11T21:59:27.009Z,91.73
2023-02-11T22:01:32.186Z,91.26
2023-02-11T22:03:33.708Z,90.68
2023-02-11T22:05:36.009Z,90.62
2023-02-11T22:07:37.619Z,90.41
2023-02-11T22:09:40.074Z,90.22
2023-02-11T22:11:41.953Z,90.09
2023-02-11T22:13:44.270Z,91.08
2023-02-11T22:15:46.050Z,91.21
2023-02-11T22:17:47.552Z,91.70
2023-02-11T22:19:49.464Z,91.25
2023-02-11T22:21:51.124Z,90.94
2023-02-11T22:23:54.996Z,91.00
2023-02-11T22:25:57.683Z,91.30
2023-02-11T22:27:59.195Z,92.55
2023-02-11T22:30:01.114Z,92.19
2023-02-11T22:32:02.810Z,92.24
2023-02-11T22:34:05.508Z,92.36
2023-02-11T22:36:12.407Z,92.63
2023-02-11T22:38:14.086Z,92.97
2023-02-11T22:40:16.621Z,92.67
2023-02-11T22:42:18.224Z,93.29
2023-02-11T22:44:21.389Z,93.14
2023-02-11T22:46:23.455Z,92.85
2023-02-11T22:48:25.174Z,93.00
2023-02-11T22:50:26.705Z,92.85
2023-02-11T22:52:28.314Z,92.53
2023-02-11T22:54:29.936Z,92.39
2023-02-11T22:56:33.171Z,92.32
2023-02-11T22:58:36.278Z,91.97
2023-02-11T23:00:40.824Z,92.08
2023-02-11T23:02:42.360Z,91.78
2023-02-11T23:04:43.947Z,93.47
2023-02-11T23:06:47.432Z,94.11
2023-02-11T23:08:48.980Z,94.82
2023-02-11T23:10:50.540Z,95.42
2023-02-11T23:12:52.083Z,95.75
2023-02-11T23:14:53.632Z,96.08
2023-02-11T23:16:55.361Z,94.89
2023-02-11T23:19:00.120Z,93.82
2023-02-11T23:21:05.024Z,93.31
2023-02-11T23:23:06.774Z,93.48
2023-02-11T23:25:08.497Z,93.01
2023-02-11T23:27:10.054Z,92.98
2023-02-11T23:29:12.453Z,93.16
2023-02-11T23:31:20.525Z,94.13
2023-02-11T23:33:22.960Z,94.68
2023-02-11T23:35:24.802Z,94.89
2023-02-11T23:37:26.435Z,94.93
2023-02-11T23:39:27.972Z,94.45
2023-02-11T23:41:29.612Z,94.15
2023-02-11T23:43:31.271Z,93.75
2023-02-11T23:45:32.833Z,93.25
2023-02-11T23:47:35.283Z,93.09
2023-02-11T23:49:37.155Z,92.89
2023-02-11T23:51:38.709Z,92.72
2023-02-11T23:53:40.635Z,92.54
2023-02-11T23:55:43.530Z,91.34
2023-02-11T23:57:45.576Z,90.86
2023-02-11T23:59:49.745Z,91.17
